Time;durP1;ratioP1;P1;durP2;ratioP2;P2;SDS_P1;SDS_P2;PMS_P1;PMS_P2;Temp;Humidity;BMP_temperature;BMP_pressure;BME280_temperature;BME280_humidity;BME280_pressure;Samples;Min_cycle;Max_cycle;Signal;HPM_P1;HPM_P2
2022/03/09 00:01:51;;;;;;;17.48;8.65;;;2.40;85.40;;;;;;4899810;29;20412;-77
2022/03/09 00:04:35;;;;;;;16.73;7.35;;;2.30;86.30;;;;;;4893697;29;20039;-77
2022/03/09 00:07:35;;;;;;;30.27;15.57;;;2.30;87.60;;;;;;4932066;29;20063;-77
2022/03/09 00:11:14;;;;;;;;;;;;;;;;;;;;;
2022/03/09 00:17:22;;;;;;;14.90;8.75;;;2.10;88.30;;;;;;4942541;28;20066;-77
2022/03/09 00:20:00;;;;;;;14.55;7.78;;;2.10;88.70;;;;;;4920518;29;20068;-77
2022/03/09 00:26:27;;;;;;;14.35;7.35;;;2.00;88.40;;;;;;4919535;29;20073;-77
2022/03/09 00:35:52;;;;;;;15.27;7.93;;;1.90;90.50;;;;;;4909353;28;20108;-77
2022/03/09 00:42:30;;;;;;;10.90;6.18;;;1.90;90.10;;;;;;4866675;29;20072;-77
2022/03/09 00:45:56;;;;;;;;;;;;;;;;;;;;;
2022/03/09 00:48:56;;;;;;;12.40;5.78;;;1.90;88.70;;;;;;4818096;29;20045;-77
2022/03/09 00:51:37;;;;;;;9.82;6.03;;;1.90;88.20;;;;;;4838016;29;20076;-77
2022/03/09 01:21:34;;;;;;;9.18;5.72;;;1.70;89.00;;;;;;4864289;29;20040;-78
2022/03/09 01:38:30;;;;;;;13.32;6.18;;;1.40;90.80;;;;;;4784686;29;20034;-77
2022/03/09 02:12:38;;;;;;;;;;;;;;;;;;;;;
2022/03/09 02:29:10;;;;;;;6.80;4.38;;;1.00;94.10;;;;;;4845449;29;20049;-77
2022/03/09 02:43:23;;;;;;;9.95;5.18;;;1.10;93.30;;;;;;4805842;29;20048;-77
2022/03/09 03:07:37;;;;;;;;;;;;;;;;;;;;;
2022/03/09 03:24:27;;;;;;;7.43;5.10;;;0.80;94.30;;;;;;4961718;28;20053;-77
2022/03/09 04:05:39;;;;;;;7.82;5.10;;;0.70;95.90;;;;;;4951605;29;20129;-77
2022/03/09 04:11:46;;;;;;;11.00;5.30;;;0.70;95.70;;;;;;5005938;28;20136;-77
2022/03/09 04:25:29;;;;;;;9.40;5.20;;;0.90;93.90;;;;;;4988173;28;20022;-77
2022/03/09 05:08:31;;;;;;;10.30;5.30;;;0.80;95.00;;;;;;5058931;28;20047;-77
2022/03/09 05:11:49;;;;;;;9.27;5.37;;;0.90;94.60;;;;;;5091372;28;20486;-77
2022/03/09 05:14:34;;;;;;;8.97;5.27;;;0.90;94.30;;;;;;5103237;28;20481;-78
2022/03/09 05:17:58;;;;;;;9.43;4.87;;;0.90;94.80;;;;;;5100187;28;20015;-77
2022/03/09 05:21:13;;;;;;;8.33;4.63;;;0.90;94.50;;;;;;5015311;28;20131;-78
2022/03/09 05:24:41;;;;;;;12.77;7.27;;;1.00;94.10;;;;;;4963674;28;20019;-77
2022/03/09 05:28:02;;;;;;;18.27;8.52;;;1.20;93.50;;;;;;4926369;28;20048;-78
2022/03/09 05:30:36;;;;;;;18.17;9.27;;;1.20;93.10;;;;;;4872564;29;20136;-78
2022/03/09 05:33:13;;;;;;;24.80;17.33;;;1.20;93.80;;;;;;4878727;29;20037;-77
2022/03/09 05:36:45;;;;;;;49.73;35.83;;;1.20;94.00;;;;;;4941908;28;20498;-77
2022/03/09 05:39:57;;;;;;;16.57;9.93;;;1.20;94.10;;;;;;4933652;28;20137;-78
2022/03/09 05:42:32;;;;;;;12.98;7.10;;;1.20;94.20;;;;;;4988563;28;20021;-77
2022/03/09 05:48:41;;;;;;;10.68;5.30;;;1.20;94.70;;;;;;4957217;28;20085;-77
2022/03/09 05:55:15;;;;;;;8.07;5.17;;;1.20;95.00;;;;;;4917911;29;20055;-77
2022/03/09 05:57:44;;;;;;;7.97;5.47;;;1.20;95.00;;;;;;4910556;29;20036;-77
2022/03/09 06:00:14;;;;;;;12.88;5.95;;;1.30;95.30;;;;;;4977736;28;20285;-77
2022/03/09 06:02:40;;;;;;;9.60;5.38;;;1.40;95.90;;;;;;4996256;28;20100;-78
2022/03/09 06:05:44;;;;;;;9.37;5.87;;;1.40;94.70;;;;;;5089241;28;20051;-78
2022/03/09 06:08:23;;;;;;;12.63;5.85;;;1.70;93.70;;;;;;5093136;28;20150;-78
2022/03/09 06:11:10;;;;;;;12.85;6.10;;;1.80;92.90;;;;;;5092155;28;20060;-78
2022/03/09 06:14:50;;;;;;;10.20;5.93;;;2.00;93.30;;;;;;5081033;28;20491;-78
2022/03/09 06:16:57;;;;;;;9.35;5.72;;;2.00;92.80;;;;;;5058040;28;20625;-77
2022/03/09 06:19:23;;;;;;;11.77;6.05;;;2.10;93.00;;;;;;5064976;28;20032;-78
2022/03/09 06:21:49;;;;;;;13.02;7.68;;;2.20;92.70;;;;;;5077511;28;20386;-78
2022/03/09 06:24:20;;;;;;;31.55;14.57;;;2.30;91.70;;;;;;5074152;28;20028;-78
2022/03/09 06:26:46;;;;;;;9.30;6.35;;;2.50;92.20;;;;;;5080815;28;20016;-78
2022/03/09 06:29:12;;;;;;;8.57;4.90;;;2.60;92.10;;;;;;5084276;28;20100;-78
2022/03/09 06:31:48;;;;;;;8.13;5.07;;;2.70;91.50;;;;;;5057948;28;20476;-78
2022/03/09 06:34:13;;;;;;;12.05;5.90;;;2.80;91.70;;;;;;5076946;28;20105;-77
2022/03/09 06:36:44;;;;;;;11.35;5.82;;;2.90;91.30;;;;;;5061138;28;20028;-77
2022/03/09 06:39:16;;;;;;;10.82;5.35;;;3.00;91.00;;;;;;5077309;28;20029;-77
2022/03/09 06:42:13;;;;;;;8.75;4.63;;;3.20;87.70;;;;;;5080804;28;20032;-77
2022/03/09 06:45:02;;;;;;;11.52;5.35;;;3.40;87.20;;;;;;5078787;28;20020;-77
2022/03/09 06:47:57;;;;;;;9.93;5.55;;;3.60;85.90;;;;;;5084182;28;20021;-78
2022/03/09 06:50:26;;;;;;;9.27;5.05;;;3.80;84.70;;;;;;5071467;28;20028;-78
2022/03/09 06:52:52;;;;;;;13.20;5.88;;;4.00;84.70;;;;;;5083739;28;20042;-77
2022/03/09 06:56:00;;;;;;;12.60;5.65;;;4.10;83.80;;;;;;5079371;28;20025;-78
2022/03/09 06:58:08;;;;;;;8.25;4.97;;;4.30;83.10;;;;;;5072267;28;20040;-78
2022/03/09 07:00:47;;;;;;;10.52;5.63;;;4.40;82.00;;;;;;5087356;28;20028;-78
2022/03/09 07:03:13;;;;;;;8.52;5.63;;;4.60;82.90;;;;;;5084366;28;20031;-78
2022/03/09 07:06:16;;;;;;;11.00;6.38;;;4.70;80.70;;;;;;5085497;28;20029;-78
2022/03/09 07:08:42;;;;;;;9.93;5.90;;;4.90;81.70;;;;;;5080355;28;20028;-78
2022/03/09 07:11:08;;;;;;;19.10;6.47;;;5.00;81.30;;;;;;5099588;28;20523;-79
2022/03/09 07:13:37;;;;;;;12.27;6.38;;;5.10;80.10;;;;;;5102667;28;20029;-78
2022/03/09 07:16:03;;;;;;;11.55;5.57;;;5.20;79.40;;;;;;5081767;28;20063;-79
2022/03/09 07:18:32;;;;;;;9.60;5.47;;;5.40;81.30;;;;;;5105345;28;20019;-78
2022/03/09 07:20:58;;;;;;;11.25;5.40;;;5.40;79.40;;;;;;5103166;28;20387;-80
2022/03/09 07:23:27;;;;;;;15.23;5.75;;;5.60;78.00;;;;;;5103967;28;20020;-78
2022/03/09 07:25:53;;;;;;;18.70;6.10;;;5.70;77.60;;;;;;5081622;28;20094;-78
2022/03/09 07:28:28;;;;;;;16.52;6.13;;;5.80;76.40;;;;;;5104078;28;20542;-79
2022/03/09 07:30:57;;;;;;;10.63;5.40;;;6.00;76.40;;;;;;5081661;28;20032;-79
2022/03/09 07:33:48;;;;;;;14.65;5.57;;;6.10;75.50;;;;;;5104685;28;20027;-79
2022/03/09 07:36:30;;;;;;;14.48;6.30;;;6.30;76.20;;;;;;5104350;28;20026;-78
2022/03/09 07:42:04;;;;;;;14.30;5.70;;;6.60;74.10;;;;;;5056478;28;20034;-79
2022/03/09 07:44:33;;;;;;;15.05;6.47;;;6.70;73.20;;;;;;5086765;28;20091;-78
2022/03/09 07:46:59;;;;;;;10.45;6.57;;;6.80;72.10;;;;;;5084191;28;20429;-78
2022/03/09 07:49:25;;;;;;;11.77;6.72;;;6.90;70.70;;;;;;5082186;28;20035;-78
2022/03/09 07:51:51;;;;;;;9.20;7.05;;;7.00;70.70;;;;;;5101927;28;20058;-78
2022/03/09 07:54:23;;;;;;;14.57;7.03;;;7.10;69.20;;;;;;5081014;28;20039;-79
2022/03/09 07:56:49;;;;;;;15.98;7.50;;;7.20;69.20;;;;;;5099532;28;20110;-79
2022/03/09 07:59:15;;;;;;;20.50;10.73;;;7.30;69.40;;;;;;5079912;28;20461;-79
2022/03/09 08:01:41;;;;;;;12.10;7.40;;;7.40;69.80;;;;;;5102632;28;20024;-78
2022/03/09 08:04:39;;;;;;;12.93;7.60;;;7.50;67.80;;;;;;5097862;28;20019;-79
2022/03/09 08:07:13;;;;;;;13.45;8.73;;;7.60;68.30;;;;;;5100072;28;20043;-78
2022/03/09 08:09:39;;;;;;;12.60;7.90;;;7.70;64.90;;;;;;5096817;28;20074;-78
2022/03/09 08:12:05;;;;;;;13.07;8.50;;;7.80;65.90;;;;;;5099609;28;20044;-78
2022/03/09 08:14:34;;;;;;;12.30;6.93;;;7.90;65.80;;;;;;5085092;28;20039;-79
2022/03/09 08:17:03;;;;;;;12.88;7.22;;;8.00;67.90;;;;;;5080673;28;20028;-78
2022/03/09 08:19:29;;;;;;;19.55;8.30;;;8.00;66.80;;;;;;5084765;28;20115;-78
2022/03/09 08:21:55;;;;;;;19.95;9.68;;;8.00;65.30;;;;;;5101345;28;20023;-78
2022/03/09 08:24:21;;;;;;;15.27;7.70;;;8.10;63.90;;;;;;5099258;28;20030;-78
2022/03/09 08:26:51;;;;;;;19.30;9.02;;;8.20;65.30;;;;;;5082565;28;20059;-78
2022/03/09 08:29:16;;;;;;;18.70;8.82;;;8.30;64.90;;;;;;5098542;28;20471;-78
2022/03/09 08:31:43;;;;;;;20.52;9.82;;;8.30;65.20;;;;;;5082691;28;20039;-78
2022/03/09 08:34:09;;;;;;;17.63;9.55;;;8.40;67.30;;;;;;5080570;28;20582;-78
2022/03/09 08:36:38;;;;;;;19.35;8.35;;;8.40;67.90;;;;;;5100320;28;20028;-78
2022/03/09 08:39:04;;;;;;;16.20;8.50;;;8.50;67.20;;;;;;5081336;28;20035;-78
2022/03/09 08:41:31;;;;;;;19.15;8.02;;;8.50;66.80;;;;;;5080642;28;20114;-78
2022/03/09 08:44:15;;;;;;;15.60;7.45;;;8.40;67.30;;;;;;5100030;28;20432;-78
2022/03/09 08:46:44;;;;;;;14.55;9.02;;;8.40;67.80;;;;;;5079879;28;20024;-78
2022/03/09 08:49:10;;;;;;;21.52;8.90;;;8.30;68.80;;;;;;5098937;28;20359;-78
2022/03/09 08:51:41;;;;;;;23.23;7.78;;;8.30;68.50;;;;;;5099885;28;20035;-78
2022/03/09 08:54:10;;;;;;;14.93;8.43;;;8.30;68.80;;;;;;5079159;28;20040;-79
2022/03/09 08:56:54;;;;;;;14.65;7.80;;;8.30;70.50;;;;;;5078542;28;20466;-79
2022/03/09 08:59:23;;;;;;;12.57;7.45;;;8.30;71.30;;;;;;5103285;28;20110;-79
2022/03/09 09:02:07;;;;;;;14.77;7.53;;;8.30;73.00;;;;;;5098482;28;20389;-79
2022/03/09 09:04:32;;;;;;;12.95;7.63;;;8.30;74.90;;;;;;5097726;28;20028;-79
2022/03/09 09:07:06;;;;;;;11.48;7.93;;;8.30;76.70;;;;;;5082709;28;20443;-79
2022/03/09 09:09:35;;;;;;;13.90;8.02;;;8.20;78.00;;;;;;5084133;28;20031;-79
2022/03/09 09:12:07;;;;;;;12.88;8.30;;;8.10;80.00;;;;;;5100006;28;20058;-79
2022/03/09 09:14:36;;;;;;;15.63;8.43;;;8.10;80.70;;;;;;5097548;28;20115;-79
2022/03/09 09:17:10;;;;;;;14.57;8.13;;;8.30;82.50;;;;;;5082368;28;20082;-79
2022/03/09 09:20:11;;;;;;;11.30;7.53;;;8.30;83.20;;;;;;5103013;28;20034;-79
2022/03/09 09:22:42;;;;;;;11.40;7.35;;;8.40;83.00;;;;;;5049249;28;20023;-79
2022/03/09 09:28:13;;;;;;;12.48;7.82;;;8.50;80.50;;;;;;5085582;28;20107;-80
2022/03/09 09:31:17;;;;;;;14.20;7.97;;;8.30;83.30;;;;;;5098172;28;20508;-79
2022/03/09 09:33:54;;;;;;;11.50;6.95;;;8.30;82.70;;;;;;5088890;28;20553;-79
2022/03/09 09:37:11;;;;;;;11.85;7.57;;;8.30;83.20;;;;;;5098027;28;20023;-79
2022/03/09 09:39:54;;;;;;;11.60;7.43;;;8.30;82.70;;;;;;5078280;28;20409;-79
2022/03/09 09:42:49;;;;;;;12.63;7.78;;;8.40;84.80;;;;;;5022640;28;20049;-79
2022/03/09 09:45:57;;;;;;;;;;;;;;;;;;;;;
2022/03/09 09:48:55;;;;;;;14.18;8.10;;;8.40;82.50;;;;;;5094311;28;20038;-79
2022/03/09 09:51:49;;;;;;;;;;;;;;;;;;;;;
2022/03/09 09:54:23;;;;;;;14.30;9.52;;;8.30;81.90;;;;;;5097381;28;20032;-79
2022/03/09 09:57:10;;;;;;;18.90;9.07;;;8.40;76.70;;;;;;5101520;28;20035;-79
2022/03/09 09:59:44;;;;;;;15.18;8.73;;;8.40;78.40;;;;;;5095249;28;20020;-79
2022/03/09 10:03:07;;;;;;;17.95;8.63;;;8.50;79.90;;;;;;5097051;28;20031;-79
2022/03/09 10:05:16;;;;;;;10.85;8.57;;;8.60;81.20;;;;;;5089872;28;20044;-79
2022/03/09 10:08:17;;;;;;;12.52;8.00;;;8.60;84.10;;;;;;5090687;28;20024;-79
2022/03/09 10:10:56;;;;;;;14.23;8.05;;;8.60;84.60;;;;;;5090507;28;20097;-79
2022/03/09 10:13:45;;;;;;;14.25;7.55;;;8.60;83.60;;;;;;5097193;28;20079;-79
2022/03/09 10:16:12;;;;;;;10.60;7.82;;;8.70;85.50;;;;;;5098386;28;20020;-79
2022/03/09 10:18:58;;;;;;;13.73;8.82;;;8.70;86.10;;;;;;5106006;28;20367;-79
2022/03/09 10:21:41;;;;;;;13.93;8.65;;;8.70;84.70;;;;;;5105956;28;20061;-79
2022/03/09 10:24:13;;;;;;;17.35;10.32;;;8.90;85.60;;;;;;5100747;28;20062;-79
2022/03/09 10:26:39;;;;;;;12.60;9.32;;;9.10;80.40;;;;;;5102699;28;20074;-79
2022/03/09 10:29:41;;;;;;;12.68;8.90;;;9.00;82.20;;;;;;5102317;28;20043;-78
2022/03/09 10:32:10;;;;;;;18.20;9.25;;;8.90;84.90;;;;;;5075441;28;20040;-79
2022/03/09 10:35:33;;;;;;;;;;;;;;;;;;;;;
2022/03/09 10:38:34;;;;;;;13.88;9.85;;;9.00;85.30;;;;;;5092362;27;20052;-79
2022/03/09 10:41:05;;;;;;;16.15;9.02;;;8.90;84.00;;;;;;5085549;28;20110;-79
2022/03/09 10:43:32;;;;;;;15.50;10.68;;;8.80;84.50;;;;;;5109520;28;20114;-79
2022/03/09 10:46:12;;;;;;;18.33;10.07;;;8.80;82.10;;;;;;5085151;28;20466;-79
2022/03/09 10:48:58;;;;;;;18.80;10.30;;;8.80;82.70;;;;;;5105251;28;20039;-79
2022/03/09 10:51:43;;;;;;;15.82;10.85;;;9.00;81.00;;;;;;5101563;28;20424;-79
2022/03/09 10:54:23;;;;;;;18.27;10.90;;;9.10;79.70;;;;;;5101491;28;20084;-79
2022/03/09 10:57:17;;;;;;;17.08;11.50;;;9.20;79.80;;;;;;5100660;28;20024;-79
2022/03/09 10:59:52;;;;;;;17.88;12.18;;;9.30;79.50;;;;;;5108070;28;20134;-79
2022/03/09 11:02:24;;;;;;;19.42;12.73;;;9.20;79.90;;;;;;5102886;28;20055;-79
2022/03/09 11:05:13;;;;;;;18.73;11.70;;;9.30;81.00;;;;;;5100777;28;20020;-79
2022/03/09 11:07:42;;;;;;;26.15;11.93;;;9.30;85.10;;;;;;5093053;28;20031;-79
2022/03/09 11:10:13;;;;;;;17.65;12.15;;;9.40;83.90;;;;;;5101314;28;20032;-79
2022/03/09 11:12:42;;;;;;;20.33;12.00;;;9.50;82.10;;;;;;5074500;28;20076;-79
2022/03/09 11:15:15;;;;;;;34.47;16.58;;;9.50;84.10;;;;;;5086465;28;20036;-79
2022/03/09 11:18:02;;;;;;;20.45;13.23;;;9.50;74.10;;;;;;5092797;28;20023;-79
2022/03/09 11:20:52;;;;;;;25.52;15.27;;;9.70;82.70;;;;;;5091519;28;20023;-78
2022/03/09 11:23:24;;;;;;;25.90;15.45;;;9.90;74.60;;;;;;5104000;28;20474;-79
2022/03/09 11:26:03;;;;;;;23.65;16.10;;;9.80;72.50;;;;;;5103191;28;20020;-79
2022/03/09 11:28:45;;;;;;;25.45;14.48;;;10.00;75.30;;;;;;5099901;28;20022;-80
2022/03/09 11:31:52;;;;;;;20.52;13.00;;;9.90;76.80;;;;;;5085062;28;20023;-80
2022/03/09 11:35:25;;;;;;;22.13;14.57;;;9.90;75.30;;;;;;5090421;28;20046;-80
2022/03/09 11:37:41;;;;;;;28.27;14.50;;;9.90;78.80;;;;;;5088402;28;20118;-80
2022/03/09 11:40:06;;;;;;;18.00;13.20;;;9.80;79.00;;;;;;5088100;28;20516;-81
2022/03/09 11:42:47;;;;;;;18.02;12.85;;;9.60;84.00;;;;;;5083053;28;20028;-80
2022/03/09 11:45:22;;;;;;;17.95;12.63;;;9.70;87.50;;;;;;5107094;28;20031;-80
2022/03/09 11:48:01;;;;;;;25.92;16.15;;;9.60;85.30;;;;;;5084187;28;20474;-80
2022/03/09 11:50:31;;;;;;;20.77;14.52;;;9.60;78.90;;;;;;5090907;28;20019;-80
2022/03/09 11:53:10;;;;;;;24.60;17.63;;;9.80;81.30;;;;;;5082801;28;20051;-80
2022/03/09 11:55:42;;;;;;;25.58;17.15;;;9.90;73.10;;;;;;5105139;28;20077;-79
2022/03/09 11:58:14;;;;;;;29.75;17.67;;;9.90;73.40;;;;;;5103453;28;20049;-79
2022/03/09 12:01:05;;;;;;;28.45;19.13;;;9.80;71.00;;;;;;5100977;28;20543;-79
2022/03/09 12:03:39;;;;;;;28.65;18.42;;;9.80;67.40;;;;;;5101519;28;20024;-79
2022/03/09 12:06:25;;;;;;;26.75;17.75;;;9.70;70.20;;;;;;5100914;28;20035;-79
2022/03/09 12:09:00;;;;;;;27.70;18.80;;;9.70;67.00;;;;;;5098803;28;20037;-79
2022/03/09 12:11:28;;;;;;;30.17;17.23;;;9.90;70.00;;;;;;5091552;28;20063;-79
2022/03/09 12:13:54;;;;;;;25.45;17.08;;;10.00;69.80;;;;;;5060169;28;20071;-77
2022/03/09 12:17:10;;;;;;;19.42;14.07;;;10.30;68.00;;;;;;5084548;28;20059;-78
2022/03/09 12:19:36;;;;;;;21.98;13.77;;;10.20;62.70;;;;;;5023767;28;20027;-77
2022/03/09 12:25:08;;;;;;;24.88;15.05;;;10.00;64.20;;;;;;5074260;28;21174;-82
2022/03/09 12:27:45;;;;;;;19.52;14.10;;;12.40;63.90;;;;;;5077860;28;20058;-80
2022/03/09 12:30:47;;;;;;;21.75;15.02;;;15.60;56.10;;;;;;5076917;28;20032;-80
2022/03/09 12:33:24;;;;;;;17.20;11.80;;;16.80;53.50;;;;;;5060389;28;20130;-79
2022/03/09 12:36:10;;;;;;;16.92;11.48;;;17.20;48.60;;;;;;5078234;28;20051;-79
2022/03/09 12:38:45;;;;;;;26.20;14.57;;;16.90;49.60;;;;;;5082376;28;20028;-79
2022/03/09 12:41:37;;;;;;;17.73;13.43;;;16.80;52.90;;;;;;5077113;28;20027;-79
2022/03/09 12:44:12;;;;;;;22.60;13.70;;;17.10;51.20;;;;;;5074712;28;20106;-79
2022/03/09 12:46:43;;;;;;;23.38;15.43;;;17.40;49.80;;;;;;5079639;28;20024;-77
2022/03/09 12:49:21;;;;;;;27.80;17.92;;;17.50;50.70;;;;;;5078698;28;20457;-79
2022/03/09 12:52:30;;;;;;;24.05;17.50;;;17.50;50.30;;;;;;5077555;28;20495;-78
2022/03/09 12:55:00;;;;;;;24.98;17.70;;;17.60;50.50;;;;;;5013411;28;20506;-77
2022/03/09 12:57:34;;;;;;;23.50;15.73;;;17.30;53.30;;;;;;5060608;28;20035;-80
2022/03/09 13:00:17;;;;;;;30.55;17.88;;;17.30;53.70;;;;;;5084968;28;20035;-77
2022/03/09 13:02:49;;;;;;;20.27;15.05;;;18.00;55.70;;;;;;5053894;28;20019;-77
2022/03/09 13:05:38;;;;;;;;;;;17.70;50.30;;;;;;5075603;28;20024;-77
2022/03/09 13:08:08;;;;;;;24.92;15.52;;;17.50;51.20;;;;;;5069201;28;19951;-78
2022/03/09 13:10:51;;;;;;;29.85;17.63;;;18.00;50.50;;;;;;5068979;28;20032;-77
2022/03/09 13:13:37;;;;;;;26.67;15.38;;;18.60;50.60;;;;;;5075425;28;20024;-78
2022/03/09 13:16:32;;;;;;;22.90;16.85;;;19.10;49.40;;;;;;5097803;28;20039;-78
2022/03/09 13:19:01;;;;;;;28.42;17.17;;;20.00;49.90;;;;;;5094135;28;20028;-78
2022/03/09 13:21:34;;;;;;;25.20;15.98;;;20.50;48.30;;;;;;5096591;28;20086;-78
2022/03/09 13:24:04;;;;;;;;;;;21.80;46.40;;;;;;5100085;28;20028;-78
2022/03/09 13:26:39;;;;;;;22.65;16.67;;;22.50;46.50;;;;;;5098393;28;20381;-78
2022/03/09 13:29:19;;;;;;;24.50;16.92;;;22.40;44.70;;;;;;5099419;28;20032;-78
2022/03/09 13:31:55;;;;;;;31.20;18.33;;;21.70;44.40;;;;;;5101606;28;20034;-77
2022/03/09 13:34:31;;;;;;;22.17;16.05;;;21.30;45.40;;;;;;5100166;28;20028;-82
2022/03/09 13:37:36;;;;;;;23.08;15.20;;;21.20;44.80;;;;;;5083162;28;20020;-78
2022/03/09 13:40:09;;;;;;;23.92;17.23;;;21.60;45.20;;;;;;5059074;28;20488;-77
2022/03/09 13:42:39;;;;;;;29.00;14.68;;;21.80;45.60;;;;;;5098829;28;20015;-77
2022/03/09 13:45:14;;;;;;;25.25;18.35;;;21.10;44.80;;;;;;5104178;28;20107;-77
2022/03/09 13:48:01;;;;;;;29.10;16.92;;;20.70;47.80;;;;;;5090343;28;20020;-76
2022/03/09 13:50:48;;;;;;;20.20;15.18;;;21.70;47.30;;;;;;5085564;28;20644;-81
2022/03/09 13:53:14;;;;;;;21.05;13.95;;;22.90;42.80;;;;;;5106297;28;20378;-76
2022/03/09 13:55:50;;;;;;;26.60;16.85;;;23.50;41.20;;;;;;5101601;28;20036;-78
2022/03/09 13:58:47;;;;;;;17.38;14.02;;;22.60;45.30;;;;;;5102994;28;20028;-77
2022/03/09 14:01:19;;;;;;;27.08;16.10;;;21.90;43.20;;;;;;5092416;28;20182;-77
2022/03/09 14:06:38;;;;;;;17.35;13.63;;;21.30;43.10;;;;;;5063322;28;20035;-77
2022/03/09 14:09:16;;;;;;;18.80;13.50;;;20.80;41.90;;;;;;5107048;28;20016;-79
2022/03/09 14:11:44;;;;;;;17.92;12.45;;;20.90;43.10;;;;;;5107563;27;20067;-78
2022/03/09 14:14:17;;;;;;;16.35;11.43;;;20.90;42.90;;;;;;5096975;28;20031;-79
2022/03/09 14:16:49;;;;;;;21.63;12.77;;;22.00;39.90;;;;;;5102644;28;20544;-78
2022/03/09 14:19:26;;;;;;;17.65;12.05;;;21.40;42.30;;;;;;5098360;28;20031;-78
2022/03/09 14:21:52;;;;;;;14.85;11.85;;;20.60;41.80;;;;;;5101996;28;20024;-78
2022/03/09 14:24:34;;;;;;;14.32;10.55;;;20.70;42.40;;;;;;5106660;28;20152;-78
2022/03/09 14:27:00;;;;;;;18.17;12.77;;;21.50;39.80;;;;;;5103653;28;20035;-78
2022/03/09 14:29:32;;;;;;;18.20;11.80;;;21.20;42.00;;;;;;5087146;28;20402;-77
2022/03/09 14:31:58;;;;;;;19.17;12.60;;;21.20;41.00;;;;;;5085771;27;20024;-77
2022/03/09 14:34:25;;;;;;;19.30;13.02;;;20.10;41.20;;;;;;5101258;28;20112;-77
2022/03/09 14:37:12;;;;;;;19.05;11.82;;;20.10;42.80;;;;;;5101851;28;20184;-78
2022/03/09 14:39:41;;;;;;;15.40;11.93;;;20.90;40.50;;;;;;5080823;28;20044;-78
2022/03/09 14:42:46;;;;;;;17.98;12.52;;;21.40;41.70;;;;;;5099321;28;20038;-78
2022/03/09 14:45:37;;;;;;;15.05;11.48;;;22.40;40.50;;;;;;5083971;28;20027;-78
2022/03/09 14:48:06;;;;;;;17.20;12.20;;;21.50;39.60;;;;;;5085053;28;20111;-78
2022/03/09 14:50:41;;;;;;;20.10;12.35;;;21.80;42.00;;;;;;5081908;28;20034;-79
2022/03/09 14:53:10;;;;;;;19.23;12.27;;;22.20;41.80;;;;;;5086228;28;20028;-78
2022/03/09 14:55:39;;;;;;;18.60;13.93;;;22.90;40.50;;;;;;5082355;28;20028;-78
2022/03/09 14:58:21;;;;;;;17.20;13.30;;;23.20;40.30;;;;;;5086108;28;20032;-78
2022/03/09 15:00:48;;;;;;;;;;;23.00;39.50;;;;;;5082400;28;20036;-78
2022/03/09 15:03:19;;;;;;;17.10;13.00;;;22.00;41.70;;;;;;5103508;28;19918;-79
2022/03/09 15:05:45;;;;;;;23.17;14.70;;;21.50;42.80;;;;;;5100168;28;20020;-79
2022/03/09 15:08:11;;;;;;;23.15;15.15;;;21.10;43.60;;;;;;5104429;28;20118;-78
2022/03/09 15:10:36;;;;;;;18.60;13.73;;;20.70;44.30;;;;;;5100041;28;20525;-78
2022/03/09 15:13:11;;;;;;;23.50;14.45;;;20.40;44.40;;;;;;5104194;28;20030;-78
2022/03/09 15:15:38;;;;;;;21.52;14.85;;;20.10;45.50;;;;;;5099833;28;20051;-78
2022/03/09 15:18:18;;;;;;;19.95;14.02;;;19.80;46.80;;;;;;5104034;28;20047;-78
2022/03/09 15:20:44;;;;;;;21.75;14.00;;;19.90;47.10;;;;;;5104489;28;20023;-78
2022/03/09 15:23:13;;;;;;;20.70;14.98;;;19.40;46.90;;;;;;5103391;28;20039;-78
2022/03/09 15:25:39;;;;;;;24.10;16.25;;;19.00;47.50;;;;;;5099857;28;20016;-78
2022/03/09 15:28:14;;;;;;;21.60;14.93;;;19.10;48.20;;;;;;5103671;28;20027;-78
2022/03/09 15:30:46;;;;;;;22.00;15.13;;;19.00;48.50;;;;;;5099825;28;20024;-78
2022/03/09 15:33:14;;;;;;;25.58;15.45;;;18.80;50.00;;;;;;5103958;28;20054;-78
2022/03/09 15:35:44;;;;;;;19.42;15.25;;;18.60;50.10;;;;;;5081553;28;20789;-78
2022/03/09 15:38:10;;;;;;;23.73;16.95;;;18.40;50.30;;;;;;5102560;28;20031;-78
2022/03/09 15:40:36;;;;;;;22.52;16.30;;;17.90;50.60;;;;;;5105389;28;20027;-78
2022/03/09 15:43:20;;;;;;;26.80;17.10;;;18.30;50.90;;;;;;5085181;28;20516;-78
2022/03/09 15:45:45;;;;;;;26.55;19.23;;;18.30;50.90;;;;;;5090855;28;20040;-77
2022/03/09 15:48:11;;;;;;;26.55;19.35;;;18.80;49.20;;;;;;5103590;28;20020;-78
2022/03/09 15:50:38;;;;;;;24.48;19.10;;;19.00;48.70;;;;;;5081300;28;20111;-79
2022/03/09 15:53:04;;;;;;;24.08;17.83;;;19.10;48.90;;;;;;5103421;28;20020;-78
2022/03/09 15:55:33;;;;;;;27.35;18.55;;;19.20;49.10;;;;;;5080447;28;20035;-78
2022/03/09 15:57:59;;;;;;;29.08;18.90;;;18.80;49.70;;;;;;5103275;28;20012;-78
2022/03/09 16:00:24;;;;;;;34.85;22.40;;;18.90;50.10;;;;;;5079997;28;20024;-78
2022/03/09 16:02:56;;;;;;;35.13;23.95;;;19.00;50.30;;;;;;5103639;28;20012;-78
2022/03/09 16:05:22;;;;;;;33.58;20.95;;;18.20;51.70;;;;;;5099023;28;20031;-78
2022/03/09 16:07:58;;;;;;;32.08;20.00;;;17.70;53.10;;;;;;5101824;27;20030;-78
2022/03/09 16:10:25;;;;;;;25.95;19.15;;;17.20;54.00;;;;;;5071706;28;20973;-77
2022/03/09 16:12:51;;;;;;;27.27;17.88;;;16.60;55.00;;;;;;5082801;28;20027;-77
2022/03/09 16:15:16;;;;;;;28.65;18.63;;;16.10;56.20;;;;;;5095400;28;20552;-77
2022/03/09 16:17:43;;;;;;;32.28;18.67;;;15.70;56.60;;;;;;5083119;28;20012;-77
2022/03/09 16:20:09;;;;;;;28.88;19.52;;;14.60;58.60;;;;;;5079627;28;20061;-77
2022/03/09 16:22:36;;;;;;;29.85;18.50;;;13.80;59.50;;;;;;5108653;28;20099;-77
2022/03/09 16:25:09;;;;;;;33.70;20.52;;;13.30;61.50;;;;;;5100135;28;20032;-77
2022/03/09 16:27:36;;;;;;;35.08;24.33;;;12.90;64.10;;;;;;5081725;28;20024;-77
2022/03/09 16:30:05;;;;;;;32.40;22.08;;;12.40;64.20;;;;;;5098415;28;20045;-76
2022/03/09 16:32:34;;;;;;;36.72;21.52;;;12.10;65.30;;;;;;5104164;28;20047;-77
2022/03/09 16:35:07;;;;;;;37.70;22.67;;;11.80;68.30;;;;;;5104733;28;20036;-77
2022/03/09 16:37:34;;;;;;;28.02;20.25;;;11.40;69.30;;;;;;5081514;28;20471;-77
2022/03/09 16:40:01;;;;;;;35.85;21.75;;;11.10;70.80;;;;;;5099859;28;20377;-77
2022/03/09 16:42:27;;;;;;;33.95;22.38;;;10.70;71.30;;;;;;5101310;28;20020;-77
2022/03/09 16:44:58;;;;;;;33.28;21.95;;;10.30;73.70;;;;;;5102071;28;20024;-77
2022/03/09 16:47:27;;;;;;;34.90;22.00;;;10.00;75.20;;;;;;5101891;28;20537;-77
2022/03/09 16:49:53;;;;;;;33.85;22.48;;;9.70;77.80;;;;;;5099324;28;20020;-76
2022/03/09 16:52:19;;;;;;;37.75;21.38;;;9.50;79.60;;;;;;5100493;28;20026;-77
2022/03/09 16:54:45;;;;;;;33.05;21.92;;;9.40;80.40;;;;;;5098886;28;20070;-77
2022/03/09 16:57:11;;;;;;;37.63;22.08;;;9.30;82.00;;;;;;5101771;28;20055;-77
2022/03/09 16:59:39;;;;;;;39.38;23.58;;;9.20;83.50;;;;;;5106249;28;20031;-77
2022/03/09 17:02:05;;;;;;;37.25;23.17;;;9.00;84.60;;;;;;5101705;28;20028;-77
2022/03/09 17:04:31;;;;;;;38.55;24.02;;;8.90;86.70;;;;;;5098442;28;20019;-77
2022/03/09 17:07:01;;;;;;;54.75;32.38;;;8.80;88.50;;;;;;5100790;28;20019;-77
2022/03/09 17:09:27;;;;;;;54.75;29.92;;;8.70;90.10;;;;;;5081617;28;20078;-78
2022/03/09 17:11:54;;;;;;;55.92;28.48;;;8.60;90.80;;;;;;5099807;28;20399;-77
2022/03/09 17:14:25;;;;;;;39.88;25.90;;;8.50;91.00;;;;;;5103408;28;20382;-77
2022/03/09 17:16:57;;;;;;;52.72;25.40;;;8.50;92.40;;;;;;5093981;28;20028;-77
2022/03/09 17:19:25;;;;;;;42.37;21.73;;;8.50;93.80;;;;;;5080259;28;20035;-77
2022/03/09 17:21:55;;;;;;;40.50;23.23;;;8.40;94.90;;;;;;5098507;28;20019;-77
2022/03/09 17:24:21;;;;;;;42.22;25.10;;;8.40;96.00;;;;;;5084964;28;20086;-77
2022/03/09 17:26:50;;;;;;;43.15;25.48;;;8.30;97.60;;;;;;5099601;28;20027;-77
2022/03/09 17:29:19;;;;;;;45.40;26.40;;;8.30;98.70;;;;;;5102929;28;20068;-77
2022/03/09 17:31:51;;;;;;;42.83;27.05;;;8.20;99.70;;;;;;5101343;28;20024;-76
2022/03/09 17:34:17;;;;;;;41.90;24.15;;;8.20;99.90;;;;;;5097549;28;20115;-77
2022/03/09 17:36:49;;;;;;;41.40;25.10;;;8.10;99.90;;;;;;5100100;28;20024;-76
2022/03/09 17:39:15;;;;;;;42.42;24.65;;;8.10;99.90;;;;;;5079904;28;20126;-77
2022/03/09 17:41:40;;;;;;;50.80;26.02;;;8.10;99.00;;;;;;5081643;28;20187;-77
2022/03/09 17:44:07;;;;;;;50.47;25.85;;;8.10;99.90;;;;;;5099154;28;20538;-77
2022/03/09 17:46:36;;;;;;;41.38;24.10;;;8.00;99.90;;;;;;5098932;28;20032;-77
2022/03/09 17:49:44;;;;;;;;;;;;;;;;;;;;;
2022/03/09 17:52:40;;;;;;;51.10;31.23;;;7.90;99.90;;;;;;4994843;28;20046;-76
2022/03/09 17:55:10;;;;;;;47.67;28.60;;;7.80;99.90;;;;;;5101880;28;20084;-77
2022/03/09 17:57:51;;;;;;;47.15;28.02;;;7.60;99.90;;;;;;5098586;28;20028;-77
2022/03/09 18:00:18;;;;;;;46.65;28.05;;;7.40;99.90;;;;;;5097946;28;20107;-77
2022/03/09 18:02:45;;;;;;;45.53;26.95;;;7.30;99.90;;;;;;5098454;28;20041;-78
2022/03/09 18:05:18;;;;;;;45.38;26.58;;;7.20;99.90;;;;;;5086825;28;20027;-78